createdAt,value
2017-12-01T00:00:40.100Z,100003.55
2017-12-01T00:03:08.620Z,100002.83
2017-12-01T00:05:37.191Z,100010.37
2017-12-01T00:08:05.566Z,100005.41
2017-12-01T00:10:34.036Z,100011.67
2017-12-01T00:13:02.353Z,100008.34
2017-12-01T00:15:30.665Z,99993.76
2017-12-01T00:17:59.115Z,100017.88
2017-12-01T00:20:27.563Z,100010.84
2017-12-01T00:22:56.013Z,100018.55
2017-12-01T00:25:24.527Z,100017.94
2017-12-01T00:27:52.967Z,100021.11
2017-12-01T00:30:21.384Z,100020.59
2017-12-01T00:32:49.764Z,100019.83
2017-12-01T00:35:18.141Z,100023.52
2017-12-01T00:37:46.594Z,100026.73
2017-12-01T00:40:14.989Z,100024.69
2017-12-01T00:42:44.067Z,100024.11
2017-12-01T00:45:12.549Z,100030.40
2017-12-01T00:47:40.953Z,100036.00
2017-12-01T00:50:09.332Z,100039.05
2017-12-01T00:52:37.806Z,100037.95
2017-12-01T00:55:06.285Z,100042.50
2017-12-01T00:57:34.692Z,100045.98
2017-12-01T01:00:04.167Z,100039.59
2017-12-01T01:02:32.757Z,100044.39
2017-12-01T01:05:01.346Z,100046.33
2017-12-01T01:07:29.798Z,100051.27
2017-12-01T01:09:58.295Z,100048.47
2017-12-01T01:12:26.820Z,100053.77
2017-12-01T01:14:55.242Z,100054.56
2017-12-01T01:17:23.715Z,100055.84
2017-12-01T01:19:52.154Z,100058.23
2017-12-01T01:22:20.807Z,100064.09
2017-12-01T01:24:49.394Z,100062.72
2017-12-01T01:30:14.777Z,100071.91
2017-12-01T01:32:43.195Z,100069.92
2017-12-01T01:35:11.657Z,100077.51
2017-12-01T01:37:40.048Z,100069.70
2017-12-01T01:40:08.492Z,100071.00
2017-12-01T01:42:37.660Z,100078.18
2017-12-01T01:45:06.151Z,100082.59
2017-12-01T01:47:34.587Z,100082.89
2017-12-01T01:50:02.972Z,100080.44
2017-12-01T01:52:31.510Z,100077.17
2017-12-01T01:55:00.082Z,100081.84
2017-12-01T01:57:29.320Z,100075.55
2017-12-01T01:59:57.732Z,100075.84
2017-12-01T02:02:26.144Z,100080.87
2017-12-01T02:04:55.272Z,100086.95
2017-12-01T02:07:23.653Z,100087.86
2017-12-01T02:09:52.197Z,100093.63
2017-12-01T02:12:21.558Z,100092.67
2017-12-01T02:14:53.240Z,100096.16
2017-12-01T02:17:21.777Z,100092.11
2017-12-01T02:19:50.218Z,100102.52
2017-12-01T02:22:19.477Z,100102.67
2017-12-01T02:24:47.890Z,100100.45
2017-12-01T02:27:18.466Z,100110.66
2017-12-01T02:29:46.898Z,100109.89
2017-12-01T02:32:15.338Z,100112.56
2017-12-01T02:34:43.857Z,100120.69
2017-12-01T02:37:12.219Z,100123.89
2017-12-01T02:39:40.666Z,100125.61
2017-12-01T02:42:09.046Z,100128.27
2017-12-01T02:44:37.583Z,100120.62
2017-12-01T02:47:06.009Z,100121.70
2017-12-01T02:49:34.532Z,100123.76
2017-12-01T02:52:03.118Z,100117.23
2017-12-01T02:54:31.651Z,100125.99
2017-12-01T02:57:00.136Z,100137.18
2017-12-01T02:59:28.516Z,100129.75
2017-12-01T03:01:56.895Z,100135.06
2017-12-01T03:04:25.412Z,100139.66
2017-12-01T03:06:53.960Z,100146.54
2017-12-01T03:09:22.543Z,100145.01
2017-12-01T03:11:51.161Z,100145.91
2017-12-01T03:14:19.711Z,100151.45
2017-12-01T03:16:49.092Z,100157.27
2017-12-01T03:19:17.862Z,100157.45
2017-12-01T03:21:46.769Z,100162.51
2017-12-01T03:24:15.373Z,100165.95
2017-12-01T03:26:43.906Z,100167.05
2017-12-01T03:29:12.362Z,100161.53
2017-12-01T03:31:40.945Z,100167.11
2017-12-01T03:34:09.563Z,100168.45
2017-12-01T03:36:38.073Z,100172.37
2017-12-01T03:39:06.666Z,100173.03
2017-12-01T03:41:35.281Z,100168.91
2017-12-01T03:44:03.839Z,100170.62
2017-12-01T03:46:32.365Z,100173.20
2017-12-01T03:49:00.797Z,100174.98
2017-12-01T03:51:29.283Z,100183.95
2017-12-01T03:53:57.864Z,100179.06
2017-12-01T03:56:26.428Z,100193.22
2017-12-01T03:58:55.861Z,100201.86
2017-12-01T04:01:24.431Z,100202.50
2017-12-01T04:03:52.909Z,100208.92
2017-12-01T04:06:21.410Z,100209.16
2017-12-01T04:08:49.904Z,100216.42
2017-12-01T04:11:18.974Z,100223.33
2017-12-01T04:13:47.623Z,100223.39
2017-12-01T04:16:16.800Z,100223.89
2017-12-01T04:18:45.236Z,100224.08
2017-12-01T04:21:13.851Z,100222.83
2017-12-01T04:23:42.468Z,100222.14
2017-12-01T04:26:11.695Z,100228.73
2017-12-01T04:28:40.128Z,100222.98
2017-12-01T04:31:08.543Z,100227.63
2017-12-01T04:33:37.801Z,100235.55
2017-12-01T04:36:06.394Z,100239.87
2017-12-01T04:38:34.856Z,100239.29
2017-12-01T04:41:03.373Z,100241.55
2017-12-01T04:43:32.183Z,100248.61
2017-12-01T04:46:03.431Z,100250.44
2017-12-01T04:48:32.069Z,100253.53
2017-12-01T04:51:00.499Z,100258.19
2017-12-01T04:53:29.042Z,100262.11
2017-12-01T04:55:57.628Z,100261.52
2017-12-01T04:58:27.063Z,100272.76
2017-12-01T05:00:55.548Z,100276.35
2017-12-01T05:03:24.094Z,100281.41
2017-12-01T05:05:53.217Z,100287.89
2017-12-01T05:08:22.489Z,100290.89
2017-12-01T05:10:52.364Z,100296.72
2017-12-01T05:13:20.943Z,100289.75
2017-12-01T05:15:49.841Z,100299.88
2017-12-01T05:18:18.309Z,100300.81
2017-12-01T05:20:46.700Z,100305.88
2017-12-01T05:23:16.061Z,100302.22
2017-12-01T05:25:45.288Z,100310.70
2017-12-01T05:28:13.669Z,100318.46
2017-12-01T05:30:42.399Z,100322.69
2017-12-01T05:33:11.519Z,100317.16
2017-12-01T05:35:40.848Z,100315.57
2017-12-01T05:38:09.636Z,100324.88
2017-12-01T05:40:40.609Z,100326.69
2017-12-01T05:43:10.129Z,100323.58
2017-12-01T05:45:41.432Z,100331.07
2017-12-01T05:48:10.645Z,100331.72
2017-12-01T05:50:39.871Z,100337.63
2017-12-01T05:53:08.829Z,100336.41
2017-12-01T05:55:38.961Z,100334.94
2017-12-01T05:58:07.782Z,100340.41
2017-12-01T06:00:36.730Z,100337.65
2017-12-01T06:03:05.079Z,100351.10
2017-12-01T06:05:33.440Z,100342.20
2017-12-01T06:08:01.769Z,100340.74
2017-12-01T06:10:30.141Z,100344.14
2017-12-01T06:12:58.466Z,100348.55
2017-12-01T06:15:26.835Z,100353.92
2017-12-01T06:17:55.203Z,100360.05
2017-12-01T06:20:23.539Z,100350.68
2017-12-01T06:22:51.891Z,100353.58
2017-12-01T06:25:21.009Z,100365.56
2017-12-01T06:27:49.349Z,100364.52
2017-12-01T06:30:18.484Z,100363.03
2017-12-01T06:32:46.825Z,100376.45
2017-12-01T06:35:15.147Z,100386.31
2017-12-01T06:37:43.483Z,100375.25
2017-12-01T06:40:11.792Z,100386.88
2017-12-01T06:42:40.131Z,100378.12
2017-12-01T06:45:08.456Z,100383.47
2017-12-01T06:47:36.805Z,100392.14
2017-12-01T06:50:05.920Z,100393.39
2017-12-01T06:52:34.248Z,100403.56
2017-12-01T06:55:02.599Z,100405.32
2017-12-01T06:57:30.936Z,100414.17
2017-12-01T07:00:00.031Z,100418.48
2017-12-01T07:02:29.151Z,100419.53
2017-12-01T07:04:57.471Z,100424.44
2017-12-01T07:07:25.812Z,100426.30
2017-12-01T07:09:54.172Z,100425.05
2017-12-01T07:12:22.529Z,100423.84
2017-12-01T07:14:50.852Z,100429.61
2017-12-01T07:17:19.195Z,100452.10
2017-12-01T07:19:48.275Z,100451.09
2017-12-01T07:22:16.647Z,100445.75
2017-12-01T07:24:44.991Z,100439.64
2017-12-01T07:27:13.314Z,100449.63
2017-12-01T07:29:41.651Z,100450.87
2017-12-01T07:32:09.967Z,100449.27
2017-12-01T07:34:38.311Z,100455.09
2017-12-01T07:37:06.631Z,100459.91
2017-12-01T07:39:35.719Z,100459.75
2017-12-01T07:42:04.049Z,100464.44
2017-12-01T07:44:37.869Z,100471.48
2017-12-01T07:47:06.183Z,100471.55
2017-12-01T07:49:34.499Z,100469.64
2017-12-01T07:52:02.848Z,100469.95
2017-12-01T07:54:31.935Z,100471.14
2017-12-01T07:57:01.024Z,100478.41
2017-12-01T07:59:29.373Z,100475.38
2017-12-01T08:01:57.696Z,100486.97
2017-12-01T08:04:26.806Z,100491.67
2017-12-01T08:06:55.176Z,100493.39
2017-12-01T08:09:23.509Z,100495.25
2017-12-01T08:11:51.832Z,100497.26
2017-12-01T08:14:20.946Z,100501.45
2017-12-01T08:17:07.182Z,100504.90
2017-12-01T08:19:35.533Z,100518.95
2017-12-01T08:22:21.407Z,100527.45
2017-12-01T08:25:07.723Z,100531.77
2017-12-01T08:27:36.052Z,100539.45
2017-12-01T08:30:04.379Z,100538.52
2017-12-01T08:32:32.736Z,100540.16
2017-12-01T08:35:01.062Z,100533.98
2017-12-01T08:37:29.410Z,100549.86
2017-12-01T08:39:57.762Z,100546.81
2017-12-01T08:42:26.091Z,100550.67
2017-12-01T08:44:54.413Z,100554.55
2017-12-01T08:47:23.536Z,100558.56
2017-12-01T08:49:51.856Z,100553.42
2017-12-01T08:52:20.170Z,100561.76
2017-12-01T08:54:48.503Z,100569.80
2017-12-01T08:57:16.820Z,100578.48
2017-12-01T08:59:45.940Z,100578.12
2017-12-01T09:02:14.261Z,100578.08
2017-12-01T09:04:42.615Z,100576.80
2017-12-01T09:07:10.951Z,100586.47
2017-12-01T09:09:40.032Z,100594.69
2017-12-01T09:12:09.163Z,100588.35
2017-12-01T09:14:37.500Z,100603.88
2017-12-01T09:17:05.829Z,100607.97
2017-12-01T09:19:34.158Z,100606.63
2017-12-01T09:22:02.475Z,100613.72
2017-12-01T09:24:30.843Z,100617.96
2017-12-01T09:26:59.178Z,100618.20
2017-12-01T09:29:27.523Z,100625.77
2017-12-01T09:31:55.867Z,100625.66
2017-12-01T09:34:24.972Z,100622.87
2017-12-01T09:36:53.328Z,100619.41
2017-12-01T09:39:22.424Z,100627.45
2017-12-01T09:41:51.505Z,100625.85
2017-12-01T09:44:19.859Z,100631.50
2017-12-01T09:46:48.171Z,100630.67
2017-12-01T09:49:17.256Z,100632.58
2017-12-01T09:51:45.591Z,100631.75
2017-12-01T09:54:13.933Z,100631.66
2017-12-01T09:56:43.031Z,100637.48
2017-12-01T09:59:12.128Z,100638.90
2017-12-01T10:01:41.236Z,100644.23
2017-12-01T10:04:09.564Z,100642.11
2017-12-01T10:06:37.899Z,100641.78
2017-12-01T10:09:06.244Z,100640.46
2017-12-01T10:11:35.386Z,100635.70
2017-12-01T10:14:03.699Z,100636.38
2017-12-01T10:16:32.058Z,100635.61
2017-12-01T10:19:00.401Z,100628.64
2017-12-01T10:21:28.734Z,100632.14
2017-12-01T10:23:57.124Z,100623.81
2017-12-01T10:26:25.462Z,100624.73
2017-12-01T10:28:53.808Z,100617.19
2017-12-01T10:31:22.151Z,100624.98
2017-12-01T10:33:50.525Z,100624.52
2017-12-01T10:36:18.827Z,100634.66
2017-12-01T10:38:47.961Z,100632.91
2017-12-01T10:41:16.280Z,100627.20
2017-12-01T10:43:44.594Z,100641.22
2017-12-01T10:46:12.936Z,100635.09
2017-12-01T10:48:41.267Z,100636.43
2017-12-01T10:51:09.614Z,100633.40
2017-12-01T10:53:38.712Z,100637.25
2017-12-01T10:56:07.145Z,100649.86
2017-12-01T10:58:35.479Z,100659.44
2017-12-01T11:01:03.803Z,100652.17
2017-12-01T11:03:32.169Z,100646.41
2017-12-01T11:06:00.506Z,100647.37
2017-12-01T11:08:29.600Z,100652.30
2017-12-01T11:10:58.707Z,100650.83
2017-12-01T11:13:27.051Z,100657.81
2017-12-01T11:15:55.404Z,100651.56
2017-12-01T11:18:24.499Z,100661.09
2017-12-01T11:20:52.840Z,100662.64
2017-12-01T11:23:21.191Z,100661.92
2017-12-01T11:25:50.296Z,100664.16
2017-12-01T11:28:19.385Z,100670.22
2017-12-01T11:30:48.779Z,100669.16
2017-12-01T11:33:17.099Z,100660.13
2017-12-01T11:35:45.432Z,100670.83
2017-12-01T11:38:13.803Z,100669.34
2017-12-01T11:40:42.132Z,100670.01
2017-12-01T11:43:10.452Z,100665.42
2017-12-01T11:45:38.811Z,100671.25
2017-12-01T11:48:07.160Z,100681.18
2017-12-01T11:50:35.481Z,100682.30
2017-12-01T11:53:03.809Z,100682.78
2017-12-01T11:55:32.156Z,100686.09
2017-12-01T11:58:00.480Z,100682.80
2017-12-01T12:00:42.071Z,100681.75
2017-12-01T12:03:10.409Z,100680.27
2017-12-01T12:05:39.518Z,100691.95
2017-12-01T12:08:07.853Z,100687.16
2017-12-01T12:10:36.208Z,100696.53
2017-12-01T12:13:04.537Z,100697.59
2017-12-01T12:15:33.628Z,100698.92
2017-12-01T12:18:01.975Z,100695.73
2017-12-01T12:20:30.325Z,100700.42
2017-12-01T12:22:58.677Z,100708.03
2017-12-01T12:25:27.788Z,100710.42
2017-12-01T12:27:56.132Z,100705.55
2017-12-01T12:30:24.493Z,100708.95
2017-12-01T12:32:52.816Z,100710.04
2017-12-01T12:35:21.142Z,100716.63
2017-12-01T12:37:49.491Z,100713.62
2017-12-01T12:40:17.809Z,100714.80
2017-12-01T12:42:46.136Z,100719.38
2017-12-01T12:45:14.526Z,100725.05
2017-12-01T12:47:42.876Z,100720.08
2017-12-01T12:50:11.996Z,100728.05
2017-12-01T12:52:40.320Z,100724.25
2017-12-01T12:55:08.644Z,100728.57
2017-12-01T12:57:36.995Z,100731.31
2017-12-01T13:00:06.086Z,100732.09
2017-12-01T13:02:35.186Z,100733.92
2017-12-01T13:05:04.312Z,100736.68
2017-12-01T13:07:32.628Z,100736.16
2017-12-01T13:10:00.975Z,100745.57
2017-12-01T13:12:29.420Z,100745.09
2017-12-01T13:14:58.539Z,100744.06
2017-12-01T13:17:26.865Z,100748.16
2017-12-01T13:19:55.220Z,100756.02
2017-12-01T13:22:23.535Z,100750.70
2017-12-01T13:24:51.872Z,100753.28
2017-12-01T13:27:20.196Z,100756.22
2017-12-01T13:29:49.311Z,100752.52
2017-12-01T13:32:17.668Z,100758.20
2017-12-01T13:34:45.994Z,100760.91
2017-12-01T13:37:14.335Z,100757.75
2017-12-01T13:39:43.481Z,100763.03
2017-12-01T13:42:11.798Z,100764.16
2017-12-01T13:44:40.148Z,100762.67
2017-12-01T13:47:08.506Z,100766.05
2017-12-01T13:49:36.847Z,100767.27
2017-12-01T13:52:05.930Z,100766.61
2017-12-01T13:54:34.259Z,100768.71
2017-12-01T13:57:02.592Z,100778.45
2017-12-01T13:59:31.730Z,100772.98
2017-12-01T14:02:00.055Z,100783.11
2017-12-01T14:04:28.427Z,100782.39
2017-12-01T14:06:56.747Z,100779.75
2017-12-01T14:09:25.089Z,100781.88
2017-12-01T14:11:53.455Z,100788.61
2017-12-01T14:14:21.773Z,100791.12
2017-12-01T14:16:50.091Z,100786.30
2017-12-01T14:19:18.428Z,100791.50
2017-12-01T14:21:46.759Z,100791.22
2017-12-01T14:24:15.120Z,100799.08
2017-12-01T14:26:43.455Z,100802.75
2017-12-01T14:29:12.539Z,100803.28
2017-12-01T14:31:41.638Z,100808.44
2017-12-01T14:34:10.727Z,100804.39
2017-12-01T14:36:39.840Z,100812.50
2017-12-01T14:39:08.151Z,100811.13
2017-12-01T14:41:36.490Z,100821.98
2017-12-01T14:44:05.635Z,100826.23
2017-12-01T14:46:33.956Z,100832.96
2017-12-01T14:49:03.068Z,100835.33
2017-12-01T14:51:32.175Z,100833.81
2017-12-01T14:54:00.490Z,100834.42
2017-12-01T14:56:28.844Z,100833.55
2017-12-01T14:58:57.187Z,100844.30
2017-12-01T15:01:26.292Z,100851.77
2017-12-01T15:03:54.623Z,100852.72
2017-12-01T15:06:22.948Z,100863.38
2017-12-01T15:08:51.305Z,100866.08
2017-12-01T15:11:20.483Z,100871.33
2017-12-01T15:13:48.823Z,100874.19
2017-12-01T15:16:17.159Z,100879.07
2017-12-01T15:18:46.239Z,100882.91
2017-12-01T15:21:14.585Z,100891.39
2017-12-01T15:23:42.911Z,100893.67
2017-12-01T15:26:11.995Z,100900.70
2017-12-01T15:28:40.359Z,100896.09
2017-12-01T15:31:08.695Z,100896.59
2017-12-01T15:33:37.012Z,100901.63
2017-12-01T15:36:05.364Z,100900.20
2017-12-01T15:38:33.712Z,100909.47
2017-12-01T15:41:02.048Z,100914.80
2017-12-01T15:43:30.392Z,100919.88
2017-12-01T15:45:58.737Z,100927.43
2017-12-01T15:48:27.839Z,100921.55
2017-12-01T15:50:56.936Z,100924.33
2017-12-01T15:53:26.063Z,100932.48
2017-12-01T15:55:54.392Z,100935.03
2017-12-01T15:58:22.714Z,100933.29
2017-12-01T16:00:51.084Z,100945.63
2017-12-01T16:03:19.413Z,100943.66
2017-12-01T16:05:47.754Z,100948.48
2017-12-01T16:08:16.093Z,100945.98
2017-12-01T16:10:45.209Z,100957.46
2017-12-01T16:13:13.524Z,100954.34
2017-12-01T16:15:41.880Z,100960.03
2017-12-01T16:18:10.200Z,100961.91
2017-12-01T16:20:38.521Z,100963.91
2017-12-01T16:23:06.863Z,100968.37
2017-12-01T16:25:35.189Z,100973.21
2017-12-01T16:28:03.535Z,100987.11
2017-12-01T16:30:31.896Z,100981.02
2017-12-01T16:33:08.393Z,100984.22
2017-12-01T16:35:28.568Z,100984.78
2017-12-01T16:37:57.669Z,100987.48
2017-12-01T16:40:26.788Z,100993.61
2017-12-01T16:42:55.109Z,100996.05
2017-12-01T16:45:24.253Z,100995.25
2017-12-01T16:47:52.621Z,100996.30
2017-12-01T16:50:20.907Z,100997.28
2017-12-01T16:52:49.239Z,101000.44
2017-12-01T16:55:17.599Z,100999.24
2017-12-01T16:57:45.957Z,101008.30
2017-12-01T17:00:14.273Z,101014.11
2017-12-01T17:02:42.586Z,101021.13
2017-12-01T17:05:10.920Z,101020.88
2017-12-01T17:07:39.548Z,101021.53
2017-12-01T17:10:07.895Z,101026.42
2017-12-01T17:12:36.225Z,101034.92
2017-12-01T17:15:04.583Z,101032.91
2017-12-01T17:17:32.907Z,101041.35
2017-12-01T17:20:01.227Z,101047.94
2017-12-01T17:22:30.348Z,101045.76
2017-12-01T17:24:58.667Z,101048.64
2017-12-01T17:27:27.004Z,101051.19
2017-12-01T17:29:55.356Z,101052.31
2017-12-01T17:32:24.434Z,101055.63
2017-12-01T17:34:52.753Z,101056.47
2017-12-01T17:37:21.088Z,101065.66
2017-12-01T17:39:49.422Z,101066.28
2017-12-01T17:42:17.778Z,101062.36
2017-12-01T17:44:46.100Z,101070.27
2017-12-01T17:47:14.419Z,101065.24
2017-12-01T17:49:43.524Z,101072.55
2017-12-01T17:52:11.881Z,101069.39
2017-12-01T17:54:40.964Z,101072.18
2017-12-01T17:57:09.294Z,101080.72
2017-12-01T17:59:37.640Z,101080.98
2017-12-01T18:02:06.735Z,101082.59
2017-12-01T18:04:35.842Z,101083.35
2017-12-01T18:07:04.944Z,101078.83
2017-12-01T18:09:33.297Z,101084.53
2017-12-01T18:12:02.377Z,101084.35
2017-12-01T18:14:30.724Z,101100.27
2017-12-01T18:16:59.059Z,101094.73
2017-12-01T18:19:28.175Z,101104.66
2017-12-01T18:21:56.539Z,101100.33
2017-12-01T18:24:25.628Z,101114.97
2017-12-01T18:26:54.715Z,101113.42
2017-12-01T18:29:23.819Z,101116.36
2017-12-01T18:31:52.930Z,101119.09
2017-12-01T18:34:21.326Z,101117.73
2017-12-01T18:36:49.650Z,101122.38
2017-12-01T18:39:18.026Z,101052.23
2017-12-01T18:41:46.383Z,101122.16
2017-12-01T18:44:14.699Z,101125.83
2017-12-01T18:46:43.786Z,101121.17
2017-12-01T18:49:12.941Z,101121.18
2017-12-01T18:51:41.247Z,101128.83
2017-12-01T18:54:09.568Z,101124.40
2017-12-01T18:56:37.908Z,101128.52
2017-12-01T18:59:06.225Z,101132.75
2017-12-01T19:01:34.548Z,101133.69
2017-12-01T19:04:02.903Z,101146.39
2017-12-01T19:06:31.263Z,101153.22
2017-12-01T19:08:59.607Z,101156.49
2017-12-01T19:11:28.712Z,101162.33
2017-12-01T19:13:57.788Z,101162.73
2017-12-01T19:16:26.144Z,101160.55
2017-12-01T19:18:54.459Z,101161.25
2017-12-01T19:21:23.543Z,101160.56
2017-12-01T19:23:51.896Z,101165.73
2017-12-01T19:26:20.211Z,101164.77
2017-12-01T19:28:49.299Z,101175.71
2017-12-01T19:31:17.643Z,101179.26
2017-12-01T19:33:45.975Z,101173.55
2017-12-01T19:36:14.303Z,101177.33
2017-12-01T19:38:42.658Z,101186.20
2017-12-01T19:41:10.981Z,101183.42
2017-12-01T19:43:39.417Z,101190.34
2017-12-01T19:46:07.759Z,101195.10
2017-12-01T19:48:36.874Z,101195.83
2017-12-01T19:51:05.227Z,101190.44
2017-12-01T19:53:34.315Z,101202.63
2017-12-01T19:56:02.647Z,101200.39
2017-12-01T19:58:31.003Z,101204.03
2017-12-01T20:00:59.332Z,101203.25
2017-12-01T20:03:27.739Z,101210.78
2017-12-01T20:05:56.858Z,101207.70
2017-12-01T20:08:25.176Z,101218.17
2017-12-01T20:10:53.501Z,101221.55
2017-12-01T20:13:21.835Z,101215.31
2017-12-01T20:15:50.171Z,101218.77
2017-12-01T20:18:18.524Z,101219.36
2017-12-01T20:20:47.615Z,101224.58
2017-12-01T20:23:16.712Z,101229.84
2017-12-01T20:25:45.829Z,101231.95
2017-12-01T20:28:14.165Z,101234.72
2017-12-01T20:30:42.488Z,101240.76
2017-12-01T20:33:10.839Z,101241.62
2017-12-01T20:35:39.931Z,101245.88
2017-12-01T20:38:09.071Z,101253.17
2017-12-01T20:40:37.413Z,101245.94
2017-12-01T20:43:06.521Z,101253.72
2017-12-01T20:45:35.676Z,101250.34
2017-12-01T20:48:03.967Z,101251.36
2017-12-01T20:50:32.298Z,101250.49
2017-12-01T20:53:00.626Z,101241.44
2017-12-01T20:55:28.959Z,101249.71
2017-12-01T20:57:57.304Z,101254.28
2017-12-01T21:00:25.635Z,101259.58
2017-12-01T21:02:53.964Z,101256.17
2017-12-01T21:05:22.315Z,101264.75
2017-12-01T21:07:51.404Z,101260.09
2017-12-01T21:10:19.767Z,101268.19
2017-12-01T21:12:48.086Z,101262.55
2017-12-01T21:15:17.164Z,101263.23
2017-12-01T21:17:46.310Z,101268.45
2017-12-01T21:20:14.631Z,101265.67
2017-12-01T21:22:42.956Z,101273.30
2017-12-01T21:25:11.295Z,101269.70
2017-12-01T21:27:40.392Z,101272.97
2017-12-01T21:30:09.499Z,101270.29
2017-12-01T21:32:38.583Z,101274.18
2017-12-01T21:35:07.691Z,101271.03
2017-12-01T21:37:36.780Z,101272.32
2017-12-01T21:40:05.883Z,101271.99
2017-12-01T21:42:35.010Z,101274.85
2017-12-01T21:45:03.335Z,101273.95
2017-12-01T21:47:31.703Z,101279.25
2017-12-01T21:50:00.020Z,101281.42
2017-12-01T21:52:28.367Z,101282.14
2017-12-01T21:54:56.679Z,101287.42
2017-12-01T21:57:24.987Z,101286.41
2017-12-01T21:59:53.323Z,101290.24
2017-12-01T22:02:22.432Z,101284.32
2017-12-01T22:04:50.792Z,101295.69
2017-12-01T22:07:19.894Z,101286.85
2017-12-01T22:09:48.227Z,101295.06
2017-12-01T22:12:16.577Z,101294.32
2017-12-01T22:14:44.891Z,101298.85
2017-12-01T22:17:13.208Z,101299.00
2017-12-01T22:19:41.560Z,101310.28
2017-12-01T22:22:09.892Z,101301.08
2017-12-01T22:24:38.227Z,101303.14
2017-12-01T22:27:06.548Z,101302.54
2017-12-01T22:29:34.877Z,101308.17
2017-12-01T22:32:03.227Z,101310.41
2017-12-01T22:34:31.596Z,101313.59
2017-12-01T22:36:59.920Z,101317.25
2017-12-01T22:39:29.027Z,101318.92
2017-12-01T22:41:57.361Z,101318.09
2017-12-01T22:44:25.708Z,101317.16
2017-12-01T22:46:54.060Z,101324.58
2017-12-01T22:49:23.143Z,101324.52
2017-12-01T22:51:52.227Z,101325.09
2017-12-01T22:54:20.572Z,101323.94
2017-12-01T22:56:48.891Z,101324.77
2017-12-01T22:59:18.003Z,101324.46
2017-12-01T23:01:46.363Z,101333.73
2017-12-01T23:04:15.492Z,101341.78
2017-12-01T23:06:43.861Z,101341.45
2017-12-01T23:09:12.184Z,101344.65
2017-12-01T23:11:40.523Z,101338.03
2017-12-01T23:14:08.885Z,101344.41
2017-12-01T23:16:37.971Z,101334.51
2017-12-01T23:19:07.057Z,101338.13
2017-12-01T23:21:35.391Z,101338.70
2017-12-01T23:24:03.711Z,101333.52
2017-12-01T23:26:32.061Z,101334.09
2017-12-01T23:29:01.149Z,101342.80
2017-12-01T23:31:29.489Z,101328.66
2017-12-01T23:33:57.803Z,101343.06
2017-12-01T23:36:26.131Z,101343.30
2017-12-01T23:38:55.279Z,101343.13
2017-12-01T23:41:23.593Z,101346.83
2017-12-01T23:43:52.680Z,101347.84
2017-12-01T23:46:21.036Z,101349.83
2017-12-01T23:48:49.368Z,101363.75
2017-12-01T23:51:18.480Z,101360.58
2017-12-01T23:53:46.805Z,101364.37
2017-12-01T23:56:15.115Z,101359.30
2017-12-01T23:58:44.231Z,101362.52
